createdAt,value
2022-10-17T00:00:12.450Z,10.54
2022-10-17T00:03:02.060Z,10.49
2022-10-17T00:05:31.415Z,10.46
2022-10-17T00:08:00.721Z,10.43
2022-10-17T00:10:29.980Z,10.38
2022-10-17T00:13:00.870Z,10.34
2022-10-17T00:15:30.201Z,10.30
2022-10-17T00:17:59.620Z,10.26
2022-10-17T00:20:30.411Z,10.22
2022-10-17T00:23:00.682Z,10.17
2022-10-17T00:25:29.868Z,10.13
2022-10-17T00:28:00.590Z,10.09
2022-10-17T00:30:30.380Z,10.04
2022-10-17T00:32:59.867Z,9.99
2022-10-17T00:35:29.073Z,9.94
2022-10-17T00:37:58.466Z,9.91
2022-10-17T00:40:27.974Z,9.87
2022-10-17T00:42:59.060Z,9.83
2022-10-17T00:45:29.991Z,9.77
2022-10-17T00:48:05.038Z,9.73
2022-10-17T00:50:35.445Z,9.70
2022-10-17T00:53:08.911Z,9.65
2022-10-17T00:55:44.054Z,9.59
2022-10-17T00:58:15.211Z,9.55
2022-10-17T01:00:45.572Z,9.51
2022-10-17T01:03:15.383Z,9.43
2022-10-17T01:05:44.997Z,9.39
2022-10-17T01:08:14.711Z,9.33
2022-10-17T01:10:56.011Z,9.28
2022-10-17T01:13:31.664Z,9.23
2022-10-17T01:16:10.367Z,9.18
2022-10-17T01:18:50.429Z,9.13
2022-10-17T01:21:36.994Z,9.07
2022-10-17T01:24:30.736Z,9.01
2022-10-17T01:27:30.696Z,8.98
2022-10-17T01:30:31.533Z,8.92
2022-10-17T01:33:09.951Z,8.87
2022-10-17T01:35:43.502Z,8.83
2022-10-17T01:38:16.596Z,8.79
2022-10-17T01:40:50.886Z,8.75
2022-10-17T01:43:27.176Z,8.72
2022-10-17T01:46:02.718Z,8.68
2022-10-17T01:48:38.693Z,8.64
2022-10-17T01:51:12.474Z,8.61
2022-10-17T01:53:46.901Z,8.57
2022-10-17T01:56:18.002Z,8.53
2022-10-17T01:58:52.652Z,8.50
2022-10-17T02:01:24.258Z,8.45
2022-10-17T02:03:57.388Z,8.42
2022-10-17T02:06:26.859Z,8.39
2022-10-17T02:08:56.183Z,8.36
2022-10-17T02:11:27.420Z,8.34
2022-10-17T02:14:15.525Z,8.32
2022-10-17T02:16:54.348Z,8.29
2022-10-17T02:19:40.058Z,8.26
2022-10-17T02:22:20.934Z,8.23
2022-10-17T02:24:57.426Z,8.19
2022-10-17T02:27:36.209Z,8.17
2022-10-17T02:34:00.697Z,8.08
2022-10-17T02:36:37.143Z,8.05
2022-10-17T02:39:08.932Z,8.00
2022-10-17T02:41:39.953Z,7.96
2022-10-17T02:44:11.817Z,7.93
2022-10-17T02:46:42.826Z,7.87
2022-10-17T02:49:19.393Z,7.85
2022-10-17T02:51:58.503Z,7.80
2022-10-17T02:54:35.643Z,7.77
2022-10-17T02:57:12.713Z,7.75
2022-10-17T02:59:45.299Z,7.72
2022-10-17T03:02:15.030Z,7.69
2022-10-17T03:04:44.811Z,7.67
2022-10-17T03:07:15.908Z,7.64
2022-10-17T03:09:46.769Z,7.64
2022-10-17T03:12:15.924Z,7.62
2022-10-17T03:14:45.244Z,7.61
2022-10-17T03:17:14.945Z,7.60
2022-10-17T03:19:44.297Z,7.59
2022-10-17T03:22:14.922Z,7.59
2022-10-17T03:24:47.600Z,7.57
2022-10-17T03:27:17.284Z,7.55
2022-10-17T03:29:47.774Z,7.54
2022-10-17T03:32:18.027Z,7.52
2022-10-17T03:34:47.807Z,7.52
2022-10-17T03:37:18.496Z,7.50
2022-10-17T03:39:48.001Z,7.49
2022-10-17T03:42:17.751Z,7.47
2022-10-17T03:44:47.177Z,7.45
2022-10-17T03:47:16.723Z,7.45
2022-10-17T03:49:47.194Z,7.44
2022-10-17T03:52:18.503Z,7.43
2022-10-17T03:54:47.987Z,7.44
2022-10-17T03:57:17.123Z,7.44
2022-10-17T03:59:46.543Z,7.44
2022-10-17T04:02:20.020Z,7.44
2022-10-17T04:04:49.576Z,7.44
2022-10-17T04:07:20.173Z,7.44
2022-10-17T04:09:51.079Z,7.44
2022-10-17T04:12:22.295Z,7.46
2022-10-17T04:14:51.784Z,7.44
2022-10-17T04:17:21.142Z,7.44
2022-10-17T04:19:51.405Z,7.42
2022-10-17T04:22:22.897Z,7.42
2022-10-17T04:24:52.338Z,7.42
2022-10-17T04:27:28.284Z,7.43
2022-10-17T04:29:57.765Z,7.43
2022-10-17T04:32:27.458Z,7.44
2022-10-17T04:35:29.040Z,7.45
2022-10-17T04:38:05.837Z,7.47
2022-10-17T04:40:35.286Z,7.48
2022-10-17T04:43:04.583Z,7.50
2022-10-17T04:45:38.561Z,7.52
2022-10-17T04:48:08.367Z,7.54
2022-10-17T04:50:37.859Z,7.55
2022-10-17T04:53:33.562Z,7.58
2022-10-17T04:56:03.123Z,7.60
2022-10-17T04:58:32.330Z,7.61
2022-10-17T05:01:05.327Z,7.64
2022-10-17T05:03:35.739Z,7.66
2022-10-17T05:06:09.411Z,7.68
2022-10-17T05:08:41.659Z,7.70
2022-10-17T05:11:19.452Z,7.72
2022-10-17T05:13:52.908Z,7.74
2022-10-17T05:16:22.952Z,7.76
2022-10-17T05:18:53.936Z,7.79
2022-10-17T05:21:24.765Z,7.81
2022-10-17T05:23:57.125Z,7.82
2022-10-17T05:26:27.253Z,7.86
2022-10-17T05:28:56.667Z,7.89
2022-10-17T05:31:28.071Z,7.92
2022-10-17T05:33:57.446Z,7.95
2022-10-17T05:36:27.624Z,7.98
2022-10-17T05:38:58.322Z,8.00
2022-10-17T05:41:27.975Z,8.02
2022-10-17T05:43:58.550Z,8.06
2022-10-17T05:46:45.350Z,8.10
2022-10-17T05:49:31.924Z,8.14
2022-10-17T05:52:03.232Z,8.18
2022-10-17T05:54:38.921Z,8.21
2022-10-17T05:57:08.300Z,8.24
2022-10-17T05:59:38.477Z,8.28
2022-10-17T06:02:15.246Z,8.32
2022-10-17T06:04:46.105Z,8.35
2022-10-17T06:07:17.487Z,8.38
2022-10-17T06:09:48.940Z,8.42
2022-10-17T06:12:18.481Z,8.44
2022-10-17T06:14:48.495Z,8.50
2022-10-17T06:17:18.371Z,8.53
2022-10-17T06:19:47.715Z,8.56
2022-10-17T06:22:18.132Z,8.62
2022-10-17T06:24:50.339Z,8.67
2022-10-17T06:27:19.993Z,8.70
2022-10-17T06:29:51.229Z,8.74
2022-10-17T06:32:20.985Z,8.78
2022-10-17T06:34:50.191Z,8.83
2022-10-17T06:37:19.587Z,8.89
2022-10-17T06:39:51.792Z,8.94
2022-10-17T06:42:24.354Z,9.00
2022-10-17T06:45:09.761Z,9.08
2022-10-17T06:47:55.271Z,9.17
2022-10-17T06:50:53.541Z,9.26
2022-10-17T06:53:27.232Z,9.33
2022-10-17T06:56:16.646Z,9.42
2022-10-17T06:58:57.467Z,9.50
2022-10-17T07:01:47.225Z,9.57
2022-10-17T07:04:18.022Z,9.62
2022-10-17T07:06:47.265Z,9.69
2022-10-17T07:09:24.331Z,9.75
2022-10-17T07:11:55.027Z,9.83
2022-10-17T07:14:31.780Z,9.89
2022-10-17T07:17:01.600Z,9.95
2022-10-17T07:19:33.796Z,10.01
2022-10-17T07:22:03.101Z,10.06
2022-10-17T07:24:33.677Z,10.13
2022-10-17T07:27:17.300Z,10.17
2022-10-17T07:29:46.786Z,10.22
2022-10-17T07:32:42.023Z,10.28
2022-10-17T07:35:12.729Z,10.32
2022-10-17T07:37:43.541Z,10.38
2022-10-17T07:40:13.384Z,10.44
2022-10-17T07:42:44.058Z,10.49
2022-10-17T07:45:14.148Z,10.55
2022-10-17T07:47:44.702Z,10.61
2022-10-17T07:50:17.788Z,10.67
2022-10-17T07:52:48.346Z,10.73
2022-10-17T07:55:17.830Z,10.81
2022-10-17T07:57:48.322Z,10.86
2022-10-17T08:00:17.868Z,10.91
2022-10-17T08:02:47.132Z,10.98
2022-10-17T08:05:16.556Z,11.08
2022-10-17T08:07:45.877Z,11.15
2022-10-17T08:10:16.712Z,11.23
2022-10-17T08:12:46.310Z,11.29
2022-10-17T08:15:17.084Z,11.37
2022-10-17T08:17:46.364Z,11.44
2022-10-17T08:20:15.734Z,11.49
2022-10-17T08:22:45.283Z,11.55
2022-10-17T08:25:14.593Z,11.61
2022-10-17T08:27:43.829Z,11.68
2022-10-17T08:30:15.180Z,11.74
2022-10-17T08:32:44.624Z,11.82
2022-10-17T08:35:14.782Z,11.89
2022-10-17T08:37:44.254Z,11.95
2022-10-17T08:40:20.279Z,12.03
2022-10-17T08:43:04.210Z,12.12
2022-10-17T08:45:42.268Z,12.22
2022-10-17T08:48:15.730Z,12.30
2022-10-17T08:50:49.980Z,12.38
2022-10-17T08:53:24.255Z,12.49
2022-10-17T08:55:55.759Z,12.57
2022-10-17T08:58:27.257Z,12.69
2022-10-17T09:01:11.934Z,12.78
2022-10-17T09:04:03.057Z,12.88
2022-10-17T09:06:36.492Z,12.97
2022-10-17T09:09:17.251Z,13.07
2022-10-17T09:12:02.630Z,13.18
2022-10-17T09:14:49.090Z,13.25
2022-10-17T09:17:32.672Z,13.37
2022-10-17T09:20:07.447Z,13.45
2022-10-17T09:22:44.101Z,13.55
2022-10-17T09:25:17.193Z,13.64
2022-10-17T09:27:49.987Z,13.73
2022-10-17T09:30:45.184Z,13.84
2022-10-17T09:33:34.360Z,13.91
2022-10-17T09:36:16.164Z,14.02
2022-10-17T09:38:49.359Z,14.11
2022-10-17T09:44:17.929Z,14.29
2022-10-17T09:47:05.007Z,14.39
2022-10-17T09:49:38.012Z,14.49
2022-10-17T09:52:20.261Z,14.56
2022-10-17T09:54:52.488Z,14.64
2022-10-17T09:57:23.030Z,14.71
2022-10-17T10:00:00.816Z,14.77
2022-10-17T10:02:33.503Z,14.84
2022-10-17T10:05:07.580Z,14.90
2022-10-17T10:07:39.436Z,14.97
2022-10-17T10:10:27.605Z,15.03
2022-10-17T10:13:07.316Z,15.11
2022-10-17T10:15:41.187Z,15.19
2022-10-17T10:21:11.200Z,15.38
2022-10-17T10:23:41.812Z,15.47
2022-10-17T10:26:24.580Z,15.58
2022-10-17T10:29:00.139Z,15.70
2022-10-17T10:31:33.349Z,15.81
2022-10-17T10:34:17.916Z,15.94
2022-10-17T10:37:02.215Z,16.06
2022-10-17T10:39:44.350Z,16.17
2022-10-17T10:42:26.771Z,16.29
2022-10-17T10:45:00.231Z,16.38
2022-10-17T10:47:32.401Z,16.47
2022-10-17T10:50:22.719Z,16.57
2022-10-17T10:53:05.844Z,16.66
2022-10-17T10:55:41.303Z,16.73
2022-10-17T10:58:24.926Z,16.80
2022-10-17T11:00:55.543Z,16.88
2022-10-17T11:03:32.499Z,16.92
2022-10-17T11:06:06.725Z,16.96
2022-10-17T11:08:41.925Z,17.00
2022-10-17T11:11:18.368Z,17.01
2022-10-17T11:13:54.877Z,17.03
2022-10-17T11:16:35.197Z,17.05
2022-10-17T11:19:14.070Z,17.08
2022-10-17T11:21:49.271Z,17.12
2022-10-17T11:24:25.764Z,17.17
2022-10-17T11:26:59.883Z,17.23
2022-10-17T11:29:32.694Z,17.29
2022-10-17T11:32:07.107Z,17.34
2022-10-17T11:34:42.862Z,17.38
2022-10-17T11:37:19.275Z,17.42
2022-10-17T11:39:56.109Z,17.46
2022-10-17T11:42:31.827Z,17.50
2022-10-17T11:45:07.388Z,17.53
2022-10-17T11:47:42.837Z,17.58
2022-10-17T11:53:17.076Z,17.70
2022-10-17T11:55:49.095Z,17.75
2022-10-17T12:01:16.337Z,17.89
2022-10-17T12:04:09.926Z,17.94
2022-10-17T12:06:51.169Z,18.01
2022-10-17T12:09:28.585Z,18.07
2022-10-17T12:12:01.321Z,18.15
2022-10-17T12:14:40.539Z,18.21
2022-10-17T12:17:29.351Z,18.29
2022-10-17T12:20:27.397Z,18.37
2022-10-17T12:23:06.258Z,18.42
2022-10-17T12:28:18.399Z,18.58
2022-10-17T12:30:56.888Z,18.64
2022-10-17T12:33:34.362Z,18.73
2022-10-17T12:36:47.031Z,18.82
2022-10-17T12:39:43.145Z,18.91
2022-10-17T12:42:47.917Z,19.00
2022-10-17T12:45:53.584Z,19.08
2022-10-17T12:48:56.085Z,19.16
2022-10-17T12:51:35.803Z,19.20
2022-10-17T12:54:13.609Z,19.25
2022-10-17T12:56:45.894Z,19.29
2022-10-17T12:59:18.820Z,19.35
2022-10-17T13:01:52.279Z,19.40
2022-10-17T13:04:22.509Z,19.47
2022-10-17T13:06:55.218Z,19.50
2022-10-17T13:09:29.532Z,19.56
2022-10-17T13:12:02.363Z,19.60
2022-10-17T13:14:33.100Z,19.64
2022-10-17T13:17:04.469Z,19.68
2022-10-17T13:19:42.884Z,19.71
2022-10-17T13:22:18.639Z,19.77
2022-10-17T13:24:48.897Z,19.85
2022-10-17T13:27:29.934Z,19.94
2022-10-17T13:30:01.055Z,20.10
2022-10-17T13:32:38.450Z,20.28
2022-10-17T13:35:10.914Z,20.46
2022-10-17T13:37:44.937Z,20.64
2022-10-17T13:40:40.930Z,20.81
2022-10-17T13:43:17.621Z,20.95
2022-10-17T13:45:50.500Z,21.07
2022-10-17T13:48:23.093Z,21.20
2022-10-17T13:50:59.143Z,21.36
2022-10-17T13:53:33.318Z,21.53
2022-10-17T13:56:34.708Z,21.72
2022-10-17T13:58:57.553Z,21.95
2022-10-17T14:01:29.797Z,22.19
2022-10-17T14:04:09.375Z,22.42
2022-10-17T14:06:48.010Z,22.67
2022-10-17T14:09:25.520Z,22.87
2022-10-17T14:12:04.203Z,23.03
2022-10-17T14:14:46.413Z,23.18
2022-10-17T14:17:27.189Z,23.32
2022-10-17T14:23:20.901Z,23.43
2022-10-17T14:25:46.160Z,23.43
2022-10-17T14:28:18.480Z,23.40
2022-10-17T14:30:56.911Z,23.38
2022-10-17T14:33:29.917Z,23.35
2022-10-17T14:36:01.631Z,23.32
2022-10-17T14:38:33.032Z,23.31
2022-10-17T14:41:40.812Z,23.26
2022-10-17T14:44:01.921Z,23.21
2022-10-17T14:46:32.144Z,23.15
2022-10-17T14:49:24.015Z,23.07
2022-10-17T14:52:27.507Z,22.97
2022-10-17T14:54:57.916Z,22.84
2022-10-17T14:57:47.334Z,22.70
2022-10-17T15:00:17.761Z,22.58
2022-10-17T15:02:48.720Z,22.45
2022-10-17T15:05:19.512Z,22.30
2022-10-17T15:07:49.104Z,22.19
2022-10-17T15:10:29.484Z,22.05
2022-10-17T15:13:27.545Z,21.93
2022-10-17T15:15:53.687Z,21.80
2022-10-17T15:18:23.065Z,21.68
2022-10-17T15:21:04.780Z,21.56
2022-10-17T15:23:42.947Z,21.43
2022-10-17T15:26:19.138Z,21.31
2022-10-17T15:28:51.125Z,21.19
2022-10-17T15:31:22.341Z,21.06
2022-10-17T15:33:52.415Z,20.95
2022-10-17T15:36:26.802Z,20.82
2022-10-17T15:38:57.720Z,20.71
2022-10-17T15:41:28.770Z,20.59
2022-10-17T15:44:00.640Z,20.47
2022-10-17T15:46:33.665Z,20.35
2022-10-17T15:49:07.632Z,20.23
2022-10-17T15:51:37.350Z,20.11
2022-10-17T15:54:06.877Z,20.01
2022-10-17T15:56:38.794Z,19.91
2022-10-17T15:59:14.097Z,19.79
2022-10-17T16:01:44.034Z,19.69
2022-10-17T16:04:15.591Z,19.59
2022-10-17T16:06:45.484Z,19.49
2022-10-17T16:09:14.860Z,19.38
2022-10-17T16:11:46.861Z,19.29
2022-10-17T16:14:19.247Z,19.19
2022-10-17T16:16:48.742Z,19.09
2022-10-17T16:19:18.079Z,19.00
2022-10-17T16:21:47.609Z,18.90
2022-10-17T16:24:17.943Z,18.80
2022-10-17T16:26:47.107Z,18.70
2022-10-17T16:29:18.338Z,18.61
2022-10-17T16:31:48.142Z,18.52
2022-10-17T16:34:17.939Z,18.42
2022-10-17T16:36:47.200Z,18.33
2022-10-17T16:39:16.607Z,18.26
2022-10-17T16:41:45.883Z,18.19
2022-10-17T16:44:17.973Z,18.10
2022-10-17T16:46:47.419Z,18.03
2022-10-17T16:49:18.303Z,17.96
2022-10-17T16:51:47.475Z,17.90
2022-10-17T16:54:17.410Z,17.82
2022-10-17T16:56:46.660Z,17.76
2022-10-17T16:59:17.721Z,17.70
2022-10-17T17:01:46.961Z,17.65
2022-10-17T17:04:16.288Z,17.59
2022-10-17T17:09:20.088Z,17.46
2022-10-17T17:11:49.223Z,17.41
2022-10-17T17:14:20.034Z,17.38
2022-10-17T17:16:49.194Z,17.35
2022-10-17T17:19:18.616Z,17.31
2022-10-17T17:21:50.914Z,17.29
2022-10-17T17:24:22.191Z,17.29
2022-10-17T17:26:53.867Z,17.26
2022-10-17T17:29:26.027Z,17.26
2022-10-17T17:31:55.414Z,17.24
2022-10-17T17:34:24.821Z,17.24
2022-10-17T17:36:54.056Z,17.24
2022-10-17T17:39:23.893Z,17.24
2022-10-17T17:41:53.283Z,17.30
2022-10-17T17:44:24.114Z,17.31
2022-10-17T17:46:53.272Z,17.30
2022-10-17T17:49:22.637Z,17.31
2022-10-17T17:51:51.550Z,17.33
2022-10-17T17:54:21.154Z,17.33
2022-10-17T17:56:50.118Z,17.34
2022-10-17T17:59:19.456Z,17.36
2022-10-17T18:01:50.517Z,17.37
2022-10-17T18:04:19.925Z,17.38
2022-10-17T18:06:48.849Z,17.40
2022-10-17T18:09:18.000Z,17.41
2022-10-17T18:11:47.097Z,17.41
2022-10-17T18:14:16.806Z,17.44
2022-10-17T18:16:45.963Z,17.46
2022-10-17T18:19:17.662Z,17.47
2022-10-17T18:21:47.065Z,17.47
2022-10-17T18:24:16.394Z,17.49
2022-10-17T18:26:45.349Z,17.50
2022-10-17T18:29:14.418Z,17.52
2022-10-17T18:31:43.755Z,17.52
2022-10-17T18:34:13.271Z,17.54
2022-10-17T18:36:43.591Z,17.54
2022-10-17T18:39:13.115Z,17.54
2022-10-17T18:41:42.075Z,17.57
2022-10-17T18:44:14.534Z,17.56
2022-10-17T18:49:18.948Z,17.57
2022-10-17T18:51:50.758Z,17.58
2022-10-17T18:54:22.162Z,17.58
2022-10-17T18:56:52.926Z,17.58
2022-10-17T18:59:22.943Z,17.59
2022-10-17T19:01:52.391Z,17.59
2022-10-17T19:04:24.960Z,17.59
2022-10-17T19:06:56.830Z,17.59
2022-10-17T19:09:26.664Z,17.58
2022-10-17T19:11:56.522Z,17.58
2022-10-17T19:14:28.624Z,17.56
2022-10-17T19:17:00.254Z,17.56
2022-10-17T19:19:30.813Z,17.55
2022-10-17T19:22:03.836Z,17.55
2022-10-17T19:24:33.224Z,17.55
2022-10-17T19:27:04.072Z,17.54
2022-10-17T19:29:33.626Z,17.56
2022-10-17T19:32:02.671Z,17.56
2022-10-17T19:34:32.613Z,17.54
2022-10-17T19:37:03.735Z,17.55
2022-10-17T19:39:33.225Z,17.55
2022-10-17T19:42:06.053Z,17.57
2022-10-17T19:44:37.023Z,17.58
2022-10-17T19:47:06.129Z,17.59
2022-10-17T19:49:37.784Z,17.59
2022-10-17T19:52:08.475Z,17.61
2022-10-17T19:54:39.504Z,17.61
2022-10-17T19:57:10.564Z,17.63
2022-10-17T19:59:40.398Z,17.67
2022-10-17T20:02:11.150Z,17.69
2022-10-17T20:04:49.664Z,17.69
2022-10-17T20:07:30.748Z,17.69
2022-10-17T20:10:00.065Z,17.71
2022-10-17T20:12:29.381Z,17.74
2022-10-17T20:14:59.076Z,17.75
2022-10-17T20:17:28.505Z,17.78
2022-10-17T20:19:58.151Z,17.78
2022-10-17T20:22:27.692Z,17.80
2022-10-17T20:24:58.551Z,17.80
2022-10-17T20:27:27.987Z,17.81
2022-10-17T20:30:01.722Z,17.82
2022-10-17T20:32:39.450Z,17.82
2022-10-17T20:35:10.172Z,17.82
2022-10-17T20:37:42.805Z,17.83
2022-10-17T20:40:34.090Z,17.84
2022-10-17T20:43:04.522Z,17.84
2022-10-17T20:45:50.932Z,17.82
2022-10-17T20:48:21.288Z,17.85
2022-10-17T20:50:51.509Z,17.82
2022-10-17T20:53:37.694Z,17.84
2022-10-17T20:56:14.307Z,17.82
2022-10-17T20:58:44.885Z,17.82
2022-10-17T21:01:17.026Z,17.81
2022-10-17T21:03:46.695Z,17.79
2022-10-17T21:06:16.705Z,17.77
2022-10-17T21:08:49.000Z,17.77
2022-10-17T21:11:21.269Z,17.75
2022-10-17T21:13:56.702Z,17.73
2022-10-17T21:16:27.093Z,17.71
2022-10-17T21:18:58.391Z,17.70
2022-10-17T21:21:29.602Z,17.68
2022-10-17T21:24:00.872Z,17.66
2022-10-17T21:26:32.919Z,17.65
2022-10-17T21:29:08.515Z,17.63
2022-10-17T21:31:39.243Z,17.61
2022-10-17T21:34:10.177Z,17.60
2022-10-17T21:36:39.657Z,17.59
2022-10-17T21:39:08.802Z,17.57
2022-10-17T21:41:39.913Z,17.54
2022-10-17T21:44:13.144Z,17.53
2022-10-17T21:46:43.130Z,17.51
2022-10-17T21:49:13.988Z,17.49
2022-10-17T21:51:44.143Z,17.47
2022-10-17T21:54:13.374Z,17.44
2022-10-17T21:56:44.451Z,17.43
2022-10-17T21:59:14.232Z,17.41
2022-10-17T22:01:45.621Z,17.40
2022-10-17T22:04:16.561Z,17.38
2022-10-17T22:06:47.422Z,17.36
2022-10-17T22:09:18.670Z,17.34
2022-10-17T22:11:50.705Z,17.32
2022-10-17T22:14:21.840Z,17.31
2022-10-17T22:16:51.713Z,17.31
2022-10-17T22:19:22.563Z,17.31
2022-10-17T22:21:52.411Z,17.29
2022-10-17T22:24:22.920Z,17.28
2022-10-17T22:26:54.007Z,17.26
2022-10-17T22:29:23.230Z,17.29
2022-10-17T22:31:52.552Z,17.28
2022-10-17T22:34:21.422Z,17.28
2022-10-17T22:36:50.598Z,17.29
2022-10-17T22:39:20.045Z,17.29
2022-10-17T22:41:49.332Z,17.28
2022-10-17T22:44:19.786Z,17.29
2022-10-17T22:46:49.154Z,17.29
2022-10-17T22:49:18.296Z,17.30
2022-10-17T22:51:47.473Z,17.31
2022-10-17T22:54:16.755Z,17.32
2022-10-17T22:56:46.235Z,17.32
2022-10-17T22:59:15.385Z,17.32
2022-10-17T23:01:46.007Z,17.34
2022-10-17T23:04:15.121Z,17.34
2022-10-17T23:06:44.077Z,17.34
2022-10-17T23:09:14.659Z,17.35
2022-10-17T23:11:43.994Z,17.37
2022-10-17T23:14:13.123Z,17.37
2022-10-17T23:16:42.089Z,17.38
2022-10-17T23:19:12.679Z,17.37
2022-10-17T23:21:42.133Z,17.39
2022-10-17T23:24:10.990Z,17.38
2022-10-17T23:26:40.269Z,17.39
2022-10-17T23:29:09.415Z,17.38
2022-10-17T23:31:38.632Z,17.39
2022-10-17T23:34:07.871Z,17.40
2022-10-17T23:36:39.093Z,17.40
2022-10-17T23:39:08.731Z,17.40
2022-10-17T23:41:38.052Z,17.39
2022-10-17T23:44:07.335Z,17.39
2022-10-17T23:46:36.515Z,17.38
2022-10-17T23:49:05.756Z,17.37
2022-10-17T23:51:34.988Z,17.34
2022-10-17T23:54:05.331Z,17.34
2022-10-17T23:56:34.550Z,17.35
2022-10-17T23:59:03.835Z,17.32
